createdAt,value
2022-11-27T00:00:46.687Z,102544.81
2022-11-27T00:03:14.175Z,102545.25
2022-11-27T00:05:41.429Z,102543.63
2022-11-27T00:08:08.639Z,102543.56
2022-11-27T00:10:36.099Z,102548.44
2022-11-27T00:13:03.494Z,102556.50
2022-11-27T00:15:30.857Z,102538.34
2022-11-27T00:17:58.082Z,102535.56
2022-11-27T00:20:29.617Z,102525.84
2022-11-27T00:22:57.061Z,102545.25
2022-11-27T00:25:24.337Z,102537.16
2022-11-27T00:27:51.554Z,102545.63
2022-11-27T00:30:19.265Z,102543.25
2022-11-27T00:32:46.443Z,102541.59
2022-11-27T00:35:13.966Z,102548.47
2022-11-27T00:37:41.293Z,102541.25
2022-11-27T00:40:08.837Z,102553.78
2022-11-27T00:42:36.043Z,102556.91
2022-11-27T00:45:03.381Z,102563.72
2022-11-27T00:47:30.597Z,102549.56
2022-11-27T00:49:57.905Z,102550.75
2022-11-27T00:52:25.288Z,102562.91
2022-11-27T00:54:52.332Z,102539.50
2022-11-27T00:57:19.733Z,102554.09
2022-11-27T00:59:46.879Z,102557.72
2022-11-27T01:02:14.152Z,102567.00
2022-11-27T01:04:41.712Z,102546.41
2022-11-27T01:07:09.377Z,102533.44
2022-11-27T01:09:36.609Z,102550.81
2022-11-27T01:12:04.337Z,102552.09
2022-11-27T01:14:31.549Z,102558.00
2022-11-27T01:16:59.211Z,102558.03
2022-11-27T01:19:26.730Z,102557.22
2022-11-27T01:21:53.957Z,102560.03
2022-11-27T01:24:21.175Z,102557.28
2022-11-27T01:26:48.337Z,102560.88
2022-11-27T01:29:15.685Z,102554.06
2022-11-27T01:31:43.081Z,102554.81
2022-11-27T01:34:15.744Z,102547.09
2022-11-27T01:36:42.989Z,102551.16
2022-11-27T01:39:16.066Z,102536.25
2022-11-27T01:41:45.815Z,102537.94
2022-11-27T01:44:25.393Z,102546.81
2022-11-27T01:47:29.730Z,102538.34
2022-11-27T01:50:09.558Z,102537.94
2022-11-27T01:52:41.463Z,102546.03
2022-11-27T01:55:21.851Z,102550.72
2022-11-27T01:57:54.184Z,102550.69
2022-11-27T02:00:22.030Z,102551.84
2022-11-27T02:02:49.636Z,102554.75
2022-11-27T02:05:21.666Z,102553.13
2022-11-27T02:07:50.021Z,102558.75
2022-11-27T02:10:18.278Z,102537.38
2022-11-27T02:12:51.229Z,102555.22
2022-11-27T02:15:37.332Z,102545.91
2022-11-27T02:18:33.262Z,102555.50
2022-11-27T02:21:12.561Z,102557.91
2022-11-27T02:24:04.430Z,102552.22
2022-11-27T02:27:02.748Z,102547.88
2022-11-27T02:29:50.382Z,102550.69
2022-11-27T02:32:33.214Z,102547.88
2022-11-27T02:35:06.578Z,102546.69
2022-11-27T02:38:12.589Z,102552.72
2022-11-27T02:40:47.357Z,102544.25
2022-11-27T02:43:39.479Z,102546.69
2022-11-27T02:46:09.956Z,102539.06
2022-11-27T02:48:43.628Z,102543.94
2022-11-27T02:51:13.532Z,102524.97
2022-11-27T02:53:48.302Z,102534.72
2022-11-27T02:56:20.598Z,102531.44
2022-11-27T02:58:49.177Z,102518.19
2022-11-27T03:01:20.550Z,102526.66
2022-11-27T03:03:51.763Z,102532.31
2022-11-27T03:06:26.623Z,102531.91
2022-11-27T03:09:02.883Z,102542.38
2022-11-27T03:11:33.063Z,102529.06
2022-11-27T03:14:05.400Z,102533.97
2022-11-27T03:16:41.127Z,102536.78
2022-11-27T03:19:26.941Z,102534.81
2022-11-27T03:21:57.730Z,102549.28
2022-11-27T03:24:25.215Z,102533.97
2022-11-27T03:26:52.753Z,102542.88
2022-11-27T03:29:37.286Z,102523.50
2022-11-27T03:32:05.772Z,102537.31
2022-11-27T03:34:33.759Z,102539.31
2022-11-27T03:37:01.593Z,102530.81
2022-11-27T03:39:30.869Z,102538.47
2022-11-27T03:42:25.951Z,102539.72
2022-11-27T03:44:59.398Z,102546.53
2022-11-27T03:48:04.335Z,102551.84
2022-11-27T03:50:49.624Z,102550.63
2022-11-27T03:53:31.613Z,102530.00
2022-11-27T03:56:06.791Z,102547.81
2022-11-27T03:58:46.042Z,102547.00
2022-11-27T04:01:17.993Z,102533.22
2022-11-27T04:03:45.348Z,102522.31
2022-11-27T04:06:12.551Z,102527.28
2022-11-27T04:08:40.814Z,102552.25
2022-11-27T04:11:09.180Z,102540.06
2022-11-27T04:13:37.264Z,102535.06
2022-11-27T04:16:05.032Z,102535.47
2022-11-27T04:18:32.191Z,102527.91
2022-11-27T04:20:59.851Z,102546.91
2022-11-27T04:23:27.049Z,102526.75
2022-11-27T04:25:54.413Z,102546.06
2022-11-27T04:28:21.662Z,102541.09
2022-11-27T04:30:54.075Z,102557.91
2022-11-27T04:33:21.671Z,102559.41
2022-11-27T04:35:49.404Z,102551.38
2022-11-27T04:38:16.999Z,102551.47
2022-11-27T04:40:44.442Z,102551.44
2022-11-27T04:43:11.875Z,102559.59
2022-11-27T04:45:39.370Z,102541.75
2022-11-27T04:48:06.934Z,102562.84
2022-11-27T04:50:34.123Z,102551.53
2022-11-27T04:53:01.322Z,102552.38
2022-11-27T04:55:28.570Z,102558.06
2022-11-27T04:57:55.746Z,102564.19
2022-11-27T05:00:22.976Z,102556.53
2022-11-27T05:02:50.266Z,102562.25
2022-11-27T05:05:17.700Z,102537.22
2022-11-27T05:07:45.031Z,102560.72
2022-11-27T05:10:12.816Z,102555.06
2022-11-27T05:12:40.008Z,102561.47
2022-11-27T05:15:07.934Z,102559.88
2022-11-27T05:17:35.060Z,102564.72
2022-11-27T05:20:02.507Z,102559.84
2022-11-27T05:22:29.739Z,102567.97
2022-11-27T05:24:56.961Z,102567.19
2022-11-27T05:27:24.305Z,102566.00
2022-11-27T05:29:51.376Z,102567.97
2022-11-27T05:32:18.763Z,102574.44
2022-11-27T05:34:45.875Z,102572.44
2022-11-27T05:37:19.025Z,102559.09
2022-11-27T05:39:46.894Z,102571.94
2022-11-27T05:42:14.366Z,102584.50
2022-11-27T05:44:41.688Z,102584.50
2022-11-27T05:47:08.999Z,102574.44
2022-11-27T05:49:36.768Z,102576.75
2022-11-27T05:52:03.949Z,102594.47
2022-11-27T05:54:31.068Z,102581.56
2022-11-27T05:56:58.202Z,102606.56
2022-11-27T05:59:25.377Z,102606.97
2022-11-27T06:01:52.635Z,102606.56
2022-11-27T06:04:19.952Z,102605.41
2022-11-27T06:06:47.102Z,102596.03
2022-11-27T06:09:14.374Z,102604.59
2022-11-27T06:11:42.525Z,102597.25
2022-11-27T06:14:10.788Z,102603.38
2022-11-27T06:16:38.379Z,102594.50
2022-11-27T06:19:05.681Z,102603.03
2022-11-27T06:21:32.969Z,102600.28
2022-11-27T06:24:00.116Z,102612.63
2022-11-27T06:26:30.215Z,102608.25
2022-11-27T06:28:59.309Z,102615.22
2022-11-27T06:31:29.631Z,102614.19
2022-11-27T06:33:57.533Z,102603.88
2022-11-27T06:36:30.855Z,102598.59
2022-11-27T06:38:57.925Z,102607.97
2022-11-27T06:41:26.808Z,102609.44
2022-11-27T06:43:55.064Z,102613.59
2022-11-27T06:46:23.526Z,102613.09
2022-11-27T06:48:52.663Z,102624.78
2022-11-27T06:51:22.802Z,102608.00
2022-11-27T06:53:51.077Z,102613.66
2022-11-27T06:56:21.880Z,102609.59
2022-11-27T06:58:56.847Z,102617.69
2022-11-27T07:01:26.147Z,102610.09
2022-11-27T07:03:53.811Z,102627.47
2022-11-27T07:06:22.787Z,102609.78
2022-11-27T07:08:50.411Z,102609.06
2022-11-27T07:11:32.133Z,102613.13
2022-11-27T07:14:02.237Z,102605.25
2022-11-27T07:16:32.892Z,102592.28
2022-11-27T07:19:03.087Z,102612.50
2022-11-27T07:21:30.424Z,102612.16
2022-11-27T07:23:58.187Z,102612.22
2022-11-27T07:26:29.413Z,102608.41
2022-11-27T07:28:57.326Z,102604.88
2022-11-27T07:31:28.505Z,102612.22
2022-11-27T07:33:56.352Z,102598.56
2022-11-27T07:36:26.384Z,102580.78
2022-11-27T07:38:53.644Z,102608.41
2022-11-27T07:41:21.561Z,102612.50
2022-11-27T07:43:49.165Z,102606.09
2022-11-27T07:46:22.211Z,102609.22
2022-11-27T07:48:50.275Z,102608.84
2022-11-27T07:51:20.913Z,102611.72
2022-11-27T07:53:48.973Z,102598.81
2022-11-27T07:56:16.807Z,102614.25
2022-11-27T07:58:44.608Z,102612.25
2022-11-27T08:01:19.314Z,102616.31
2022-11-27T08:03:46.856Z,102606.19
2022-11-27T08:06:23.450Z,102604.97
2022-11-27T08:08:51.534Z,102608.53
2022-11-27T08:11:25.459Z,102622.78
2022-11-27T08:13:57.321Z,102625.19
2022-11-27T08:16:24.732Z,102635.28
2022-11-27T08:18:52.922Z,102622.09
2022-11-27T08:21:20.537Z,102608.56
2022-11-27T08:23:47.968Z,102633.28
2022-11-27T08:26:15.807Z,102626.16
2022-11-27T08:28:43.648Z,102627.50
2022-11-27T08:31:14.007Z,102625.94
2022-11-27T08:33:41.636Z,102629.66
2022-11-27T08:36:13.671Z,102627.25
2022-11-27T08:38:44.910Z,102624.69
2022-11-27T08:41:12.218Z,102630.00
2022-11-27T08:43:39.420Z,102620.41
2022-11-27T08:46:07.759Z,102628.34
2022-11-27T08:48:36.001Z,102628.78
2022-11-27T08:51:08.966Z,102621.13
2022-11-27T08:53:37.901Z,102601.78
2022-11-27T08:56:08.469Z,102621.59
2022-11-27T08:58:36.463Z,102596.97
2022-11-27T09:01:14.657Z,102610.31
2022-11-27T09:03:42.156Z,102615.59
2022-11-27T09:06:11.787Z,102617.53
2022-11-27T09:08:39.915Z,102613.97
2022-11-27T09:11:08.535Z,102607.53
2022-11-27T09:13:37.242Z,102601.44
2022-11-27T09:16:06.063Z,102604.31
2022-11-27T09:18:33.619Z,102587.38
2022-11-27T09:21:02.865Z,102600.25
2022-11-27T09:23:31.203Z,102596.25
2022-11-27T09:26:03.158Z,102595.44
2022-11-27T09:28:32.020Z,102593.84
2022-11-27T09:31:03.825Z,102595.13
2022-11-27T09:33:33.162Z,102589.88
2022-11-27T09:36:11.572Z,102589.47
2022-11-27T09:38:39.310Z,102578.22
2022-11-27T09:41:43.922Z,102583.50
2022-11-27T09:44:11.213Z,102570.59
2022-11-27T09:46:41.884Z,102564.53
2022-11-27T09:49:15.625Z,102566.56
2022-11-27T09:51:51.308Z,102563.72
2022-11-27T09:54:26.081Z,102561.72
2022-11-27T09:56:56.443Z,102553.66
2022-11-27T09:59:33.724Z,102550.44
2022-11-27T10:02:00.998Z,102544.75
2022-11-27T10:04:30.378Z,102548.41
2022-11-27T10:07:22.571Z,102543.56
2022-11-27T10:09:56.726Z,102540.72
2022-11-27T10:12:48.658Z,102533.88
2022-11-27T10:15:38.760Z,102524.56
2022-11-27T10:18:05.924Z,102532.69
2022-11-27T10:20:55.684Z,102527.84
2022-11-27T10:23:49.609Z,102516.50
2022-11-27T10:26:26.199Z,102522.16
2022-11-27T10:29:01.157Z,102523.75
2022-11-27T10:31:39.149Z,102504.41
2022-11-27T10:34:26.245Z,102515.69
2022-11-27T10:36:56.377Z,102514.47
2022-11-27T10:39:41.351Z,102504.75
2022-11-27T10:42:38.190Z,102515.66
2022-11-27T10:45:25.314Z,102515.22
2022-11-27T10:47:52.756Z,102512.03
2022-11-27T10:50:20.886Z,102514.47
2022-11-27T10:52:58.167Z,102521.69
2022-11-27T10:56:10.787Z,102511.63
2022-11-27T10:58:38.185Z,102519.69
2022-11-27T11:01:11.136Z,102493.03
2022-11-27T11:03:38.629Z,102509.53
2022-11-27T11:06:22.793Z,102499.81
2022-11-27T11:09:29.997Z,102472.41
2022-11-27T11:12:18.729Z,102480.81
2022-11-27T11:14:57.154Z,102485.66
2022-11-27T11:17:35.003Z,102492.16
2022-11-27T11:20:30.706Z,102473.53
2022-11-27T11:22:58.350Z,102453.34
2022-11-27T11:25:25.559Z,102467.81
2022-11-27T11:27:53.470Z,102468.63
2022-11-27T11:30:28.802Z,102475.06
2022-11-27T11:33:04.281Z,102467.03
2022-11-27T11:35:35.499Z,102465.38
2022-11-27T11:38:17.386Z,102467.81
2022-11-27T11:41:02.995Z,102447.66
2022-11-27T11:43:36.350Z,102462.16
2022-11-27T11:46:07.276Z,102461.38
2022-11-27T11:48:36.194Z,102460.97
2022-11-27T11:51:17.425Z,102463.75
2022-11-27T11:53:50.751Z,102450.44
2022-11-27T11:56:35.631Z,102462.94
2022-11-27T11:59:15.256Z,102462.94
2022-11-27T12:01:54.540Z,102454.88
2022-11-27T12:05:03.052Z,102450.00
2022-11-27T12:07:54.251Z,102448.34
2022-11-27T12:10:41.551Z,102454.84
2022-11-27T12:13:11.773Z,102440.69
2022-11-27T12:16:01.553Z,102443.47
2022-11-27T12:18:43.031Z,102434.59
2022-11-27T12:21:22.699Z,102432.56
2022-11-27T12:23:59.708Z,102428.50
2022-11-27T12:27:02.514Z,102425.31
2022-11-27T12:30:05.778Z,102439.47
2022-11-27T12:32:45.219Z,102427.31
2022-11-27T12:35:24.606Z,102420.81
2022-11-27T12:38:10.728Z,102426.91
2022-11-27T12:41:02.750Z,102423.28
2022-11-27T12:43:38.749Z,102411.59
2022-11-27T12:46:06.045Z,102421.69
2022-11-27T12:48:41.987Z,102409.97
2022-11-27T12:51:26.979Z,102411.53
2022-11-27T12:54:15.007Z,102416.81
2022-11-27T12:56:48.477Z,102420.81
2022-11-27T12:59:21.997Z,102407.44
2022-11-27T13:02:24.829Z,102403.03
2022-11-27T13:04:57.642Z,102403.91
2022-11-27T13:07:27.229Z,102411.16
2022-11-27T13:10:13.577Z,102412.75
2022-11-27T13:13:06.266Z,102414.34
2022-11-27T13:15:45.109Z,102409.47
2022-11-27T13:18:26.829Z,102403.94
2022-11-27T13:20:55.056Z,102403.84
2022-11-27T13:23:22.442Z,102399.84
2022-11-27T13:25:54.851Z,102409.22
2022-11-27T13:28:41.155Z,102409.63
2022-11-27T13:31:14.976Z,102407.59
2022-11-27T13:33:45.566Z,102402.03
2022-11-27T13:36:35.751Z,102401.25
2022-11-27T13:39:04.132Z,102392.38
2022-11-27T13:41:41.268Z,102404.13
2022-11-27T13:44:29.588Z,102399.25
2022-11-27T13:47:05.343Z,102404.91
2022-11-27T13:49:36.295Z,102397.28
2022-11-27T13:52:15.932Z,102409.44
2022-11-27T13:55:23.477Z,102400.19
2022-11-27T13:57:56.996Z,102404.25
2022-11-27T14:00:38.286Z,102400.63
2022-11-27T14:03:09.844Z,102405.06
2022-11-27T14:05:45.069Z,102407.47
2022-11-27T14:08:30.945Z,102405.06
2022-11-27T14:11:00.113Z,102388.94
2022-11-27T14:13:39.626Z,102401.44
2022-11-27T14:16:35.566Z,102402.25
2022-11-27T14:19:33.382Z,102393.69
2022-11-27T14:22:02.489Z,102402.56
2022-11-27T14:24:40.850Z,102401.78
2022-11-27T14:27:35.391Z,102399.34
2022-11-27T14:30:26.269Z,102399.34
2022-11-27T14:32:53.571Z,102408.22
2022-11-27T14:35:23.085Z,102414.69
2022-11-27T14:37:50.505Z,102408.25
2022-11-27T14:40:28.018Z,102413.47
2022-11-27T14:43:08.113Z,102390.88
2022-11-27T14:45:35.849Z,102404.59
2022-11-27T14:48:03.584Z,102395.28
2022-11-27T14:50:30.814Z,102404.13
2022-11-27T14:52:58.936Z,102399.25
2022-11-27T14:55:31.652Z,102399.25
2022-11-27T14:58:02.290Z,102380.69
2022-11-27T15:00:30.192Z,102411.34
2022-11-27T15:03:08.546Z,102399.78
2022-11-27T15:05:38.879Z,102392.19
2022-11-27T15:08:12.563Z,102401.50
2022-11-27T15:10:42.121Z,102395.47
2022-11-27T15:13:22.611Z,102393.00
2022-11-27T15:16:06.937Z,102409.97
2022-11-27T15:18:37.480Z,102406.31
2022-11-27T15:21:18.118Z,102402.31
2022-11-27T15:23:47.331Z,102404.75
2022-11-27T15:26:26.143Z,102408.78
2022-11-27T15:28:55.413Z,102400.28
2022-11-27T15:31:32.821Z,102409.19
2022-11-27T15:34:03.056Z,102407.19
2022-11-27T15:36:42.733Z,102421.69
2022-11-27T15:39:45.388Z,102411.22
2022-11-27T15:42:12.767Z,102405.97
2022-11-27T15:44:40.260Z,102393.88
2022-11-27T15:47:22.849Z,102406.78
2022-11-27T15:49:50.796Z,102380.59
2022-11-27T15:52:18.545Z,102406.81
2022-11-27T15:54:46.012Z,102412.84
2022-11-27T15:57:14.337Z,102409.63
2022-11-27T15:59:41.794Z,102414.03
2022-11-27T16:02:17.284Z,102406.00
2022-11-27T16:04:45.142Z,102380.19
2022-11-27T16:07:12.683Z,102394.69
2022-11-27T16:09:40.279Z,102406.78
2022-11-27T16:12:07.973Z,102390.66
2022-11-27T16:14:35.442Z,102385.81
2022-11-27T16:17:02.917Z,102401.13
2022-11-27T16:19:30.392Z,102397.91
2022-11-27T16:21:57.872Z,102378.97
2022-11-27T16:24:25.354Z,102396.28
2022-11-27T16:26:52.873Z,102400.31
2022-11-27T16:29:20.138Z,102385.41
2022-11-27T16:31:47.964Z,102396.28
2022-11-27T16:34:16.819Z,102411.22
2022-11-27T16:36:44.817Z,102383.00
2022-11-27T16:39:14.346Z,102392.28
2022-11-27T16:41:41.611Z,102393.84
2022-11-27T16:44:14.699Z,102385.00
2022-11-27T16:46:44.893Z,102379.34
2022-11-27T16:49:12.746Z,102362.81
2022-11-27T16:51:41.527Z,102375.34
2022-11-27T16:54:12.971Z,102356.41
2022-11-27T16:56:42.429Z,102373.72
2022-11-27T16:59:12.044Z,102336.22
2022-11-27T17:01:41.822Z,102389.44
2022-11-27T17:04:14.847Z,102389.84
2022-11-27T17:06:42.271Z,102380.16
2022-11-27T17:09:10.047Z,102390.66
2022-11-27T17:11:41.533Z,102393.06
2022-11-27T17:14:09.871Z,102379.34
2022-11-27T17:16:42.784Z,102384.16
2022-11-27T17:19:14.451Z,102380.97
2022-11-27T17:21:42.588Z,102366.03
2022-11-27T17:24:15.604Z,102380.16
2022-11-27T17:26:45.803Z,102364.88
2022-11-27T17:29:16.487Z,102386.25
2022-11-27T17:31:44.793Z,102366.44
2022-11-27T17:34:15.007Z,102383.38
2022-11-27T17:36:44.312Z,102379.34
2022-11-27T17:39:14.034Z,102387.41
2022-11-27T17:41:42.423Z,102374.91
2022-11-27T17:44:09.618Z,102378.53
2022-11-27T17:46:37.402Z,102384.19
2022-11-27T17:49:06.939Z,102381.75
2022-11-27T17:51:36.023Z,102386.19
2022-11-27T17:54:03.820Z,102387.41
2022-11-27T17:56:33.619Z,102385.00
2022-11-27T17:59:01.603Z,102364.44
2022-11-27T18:01:30.232Z,102379.31
2022-11-27T18:04:04.002Z,102385.78
2022-11-27T18:06:32.434Z,102387.78
2022-11-27T18:09:00.501Z,102383.72
2022-11-27T18:11:30.653Z,102382.53
2022-11-27T18:13:59.763Z,102380.91
2022-11-27T18:16:30.789Z,102387.81
2022-11-27T18:18:59.514Z,102373.72
2022-11-27T18:21:28.853Z,102370.50
2022-11-27T18:29:30.958Z,102388.66
2022-11-27T18:31:58.227Z,102381.41
2022-11-27T18:34:25.536Z,102375.34
2022-11-27T18:36:57.446Z,102390.66
2022-11-27T18:39:24.794Z,102372.91
2022-11-27T18:41:52.569Z,102388.63
2022-11-27T18:44:19.857Z,102380.97
2022-11-27T18:46:47.325Z,102381.75
2022-11-27T18:49:14.631Z,102377.75
2022-11-27T18:51:42.368Z,102379.75
2022-11-27T18:54:09.589Z,102380.56
2022-11-27T18:56:37.768Z,102388.66
2022-11-27T18:59:06.680Z,102377.75
2022-11-27T19:01:41.384Z,102359.19
2022-11-27T19:04:11.103Z,102380.19
2022-11-27T19:06:42.319Z,102386.25
2022-11-27T19:09:11.320Z,102366.88
2022-11-27T19:11:39.585Z,102370.91
2022-11-27T19:14:07.003Z,102376.09
2022-11-27T19:16:44.037Z,102367.22
2022-11-27T19:22:09.197Z,102377.25
2022-11-27T19:24:38.132Z,102377.69
2022-11-27T19:27:05.620Z,102377.31
2022-11-27T19:29:33.688Z,102364.03
2022-11-27T19:32:01.524Z,102376.94
2022-11-27T19:34:29.154Z,102360.84
2022-11-27T19:36:58.612Z,102370.09
2022-11-27T19:39:27.434Z,102368.50
2022-11-27T19:41:55.341Z,102358.81
2022-11-27T19:44:24.837Z,102351.16
2022-11-27T19:46:54.678Z,102370.13
2022-11-27T19:49:23.691Z,102398.75
2022-11-27T19:51:51.895Z,102378.97
2022-11-27T19:54:20.680Z,102387.44
2022-11-27T19:56:49.345Z,102355.19
2022-11-27T19:59:24.389Z,102380.19
2022-11-27T20:01:53.867Z,102385.03
2022-11-27T20:04:26.108Z,102389.06
2022-11-27T20:06:53.558Z,102404.00
2022-11-27T20:09:21.293Z,102395.50
2022-11-27T20:11:48.879Z,102379.38
2022-11-27T20:14:16.177Z,102388.25
2022-11-27T20:16:44.252Z,102383.81
2022-11-27T20:19:11.516Z,102387.44
2022-11-27T20:21:40.225Z,102384.22
2022-11-27T20:24:07.922Z,102383.38
2022-11-27T20:26:41.286Z,102375.31
2022-11-27T20:29:10.340Z,102372.06
2022-11-27T20:31:40.265Z,102377.31
2022-11-27T20:34:09.379Z,102358.38
2022-11-27T20:36:40.758Z,102374.53
2022-11-27T20:39:13.946Z,102375.34
2022-11-27T20:41:44.456Z,102366.47
2022-11-27T20:44:12.442Z,102355.97
2022-11-27T20:46:40.119Z,102370.50
2022-11-27T20:49:08.627Z,102376.94
2022-11-27T20:51:36.141Z,102369.69
2022-11-27T20:54:10.529Z,102376.94
2022-11-27T20:56:38.948Z,102377.75
2022-11-27T20:59:08.034Z,102371.31
2022-11-27T21:01:37.647Z,102370.91
2022-11-27T21:04:18.458Z,102347.09
2022-11-27T21:06:48.669Z,102361.63
2022-11-27T21:09:17.618Z,102354.78
2022-11-27T21:11:47.820Z,102354.38
2022-11-27T21:14:24.077Z,102347.13
2022-11-27T21:16:54.030Z,102368.47
2022-11-27T21:19:27.574Z,102363.63
2022-11-27T21:21:57.074Z,102350.72
2022-11-27T21:24:28.370Z,102358.41
2022-11-27T21:26:56.373Z,102359.19
2022-11-27T21:29:25.950Z,102362.84
2022-11-27T21:31:55.606Z,102370.13
2022-11-27T21:34:24.946Z,102363.66
2022-11-27T21:36:52.323Z,102347.13
2022-11-27T21:39:23.985Z,102365.66
2022-11-27T21:41:54.136Z,102355.13
2022-11-27T21:44:24.867Z,102359.97
2022-11-27T21:46:53.012Z,102348.69
2022-11-27T21:49:21.775Z,102353.16
2022-11-27T21:51:53.941Z,102339.44
2022-11-27T21:54:28.724Z,102345.91
2022-11-27T21:56:57.057Z,102351.16
2022-11-27T21:59:24.745Z,102354.34
2022-11-27T22:01:52.177Z,102350.72
2022-11-27T22:04:20.067Z,102355.97
2022-11-27T22:06:48.401Z,102345.47
2022-11-27T22:09:16.393Z,102347.84
2022-11-27T22:11:46.133Z,102343.00
2022-11-27T22:14:15.722Z,102344.63
2022-11-27T22:16:45.901Z,102345.41
2022-11-27T22:19:14.859Z,102334.94
2022-11-27T22:21:43.411Z,102328.06
2022-11-27T22:24:16.856Z,102338.97
2022-11-27T22:26:48.107Z,102302.69
2022-11-27T22:29:15.450Z,102338.97
2022-11-27T22:31:42.896Z,102331.34
2022-11-27T22:34:10.293Z,102329.31
2022-11-27T22:36:38.813Z,102335.81
2022-11-27T22:39:07.979Z,102319.66
2022-11-27T22:41:37.646Z,102305.19
2022-11-27T22:44:06.835Z,102314.00
2022-11-27T22:46:36.253Z,102315.63
2022-11-27T22:49:06.471Z,102314.81
2022-11-27T22:51:37.403Z,102320.50
2022-11-27T22:54:07.353Z,102323.72
2022-11-27T22:56:36.117Z,102326.94
2022-11-27T22:59:31.206Z,102324.53
2022-11-27T23:01:54.496Z,102301.13
2022-11-27T23:04:21.648Z,102314.81
2022-11-27T23:06:49.057Z,102307.97
2022-11-27T23:09:18.275Z,102310.78
2022-11-27T23:11:47.317Z,102320.50
2022-11-27T23:14:14.851Z,102310.00
2022-11-27T23:16:42.263Z,102317.31
2022-11-27T23:19:10.075Z,102298.75
2022-11-27T23:21:38.896Z,102302.00
2022-11-27T23:24:08.392Z,102318.09
2022-11-27T23:26:35.883Z,102312.41
2022-11-27T23:29:04.374Z,102310.81
2022-11-27T23:31:35.318Z,102311.59
2022-11-27T23:34:07.704Z,102310.41
2022-11-27T23:36:35.481Z,102282.19
2022-11-27T23:39:07.005Z,102308.78
2022-11-27T23:41:34.521Z,102290.63
2022-11-27T23:44:04.772Z,102304.38
2022-11-27T23:46:32.116Z,102293.47
2022-11-27T23:49:00.508Z,102297.09
2022-11-27T23:51:31.027Z,102310.03
2022-11-27T23:53:59.253Z,102305.59
2022-11-27T23:56:30.100Z,102296.31
2022-11-27T23:58:59.099Z,102307.59
